Time;durP1;ratioP1;P1;durP2;ratioP2;P2;SDS_P1;SDS_P2;PMS_P1;PMS_P2;Temp;Humidity;BMP_temperature;BMP_pressure;BME280_temperature;BME280_humidity;BME280_pressure;Samples;Min_cycle;Max_cycle;Signal;HPM_P1;HPM_P2
2023/05/08 00:00:22;;;;;;;6.05;5.50;;;14.80;99.90;;;;;;5047613;28;20036;-89
2023/05/08 00:02:48;;;;;;;5.68;5.07;;;14.70;99.90;;;;;;5030884;28;20053;-89
2023/05/08 00:05:14;;;;;;;4.93;4.43;;;14.70;99.90;;;;;;5029906;28;20051;-90
2023/05/08 00:07:40;;;;;;;6.38;5.43;;;14.70;99.90;;;;;;5028263;28;20033;-90
2023/05/08 00:10:07;;;;;;;7.07;5.15;;;14.70;99.90;;;;;;5027217;28;20080;-90
2023/05/08 00:12:33;;;;;;;5.68;5.18;;;14.60;99.90;;;;;;5026994;28;20075;-89
2023/05/08 00:14:59;;;;;;;6.13;5.53;;;14.70;99.90;;;;;;5047422;28;20044;-89
2023/05/08 00:17:25;;;;;;;6.53;5.85;;;14.60;99.90;;;;;;5027434;28;20553;-89
2023/05/08 00:19:51;;;;;;;5.70;5.10;;;14.60;99.90;;;;;;5026592;28;20116;-89
2023/05/08 00:22:18;;;;;;;6.90;6.00;;;14.50;99.90;;;;;;5025041;28;20052;-90
2023/05/08 00:24:44;;;;;;;7.15;5.90;;;14.50;99.90;;;;;;5026941;28;20053;-90
2023/05/08 00:27:10;;;;;;;6.90;6.18;;;14.50;99.90;;;;;;5029001;28;20025;-90
2023/05/08 00:29:36;;;;;;;6.65;6.05;;;14.50;99.90;;;;;;5046147;28;20025;-90
2023/05/08 00:32:02;;;;;;;7.20;6.40;;;14.50;99.90;;;;;;5026786;28;20591;-90
2023/05/08 00:34:27;;;;;;;7.80;7.05;;;14.40;99.90;;;;;;5026312;28;20033;-89
2023/05/08 00:36:55;;;;;;;8.48;6.50;;;14.40;99.90;;;;;;5026063;28;20382;-90
2023/05/08 00:39:21;;;;;;;7.03;6.38;;;14.40;99.90;;;;;;5027909;28;20021;-89
2023/05/08 00:41:46;;;;;;;7.35;6.65;;;14.30;99.90;;;;;;5046561;28;20037;-90
2023/05/08 00:44:12;;;;;;;7.57;6.85;;;14.30;99.90;;;;;;5026038;28;20025;-90
2023/05/08 00:46:39;;;;;;;8.65;7.43;;;14.20;99.90;;;;;;5026310;28;20033;-89
2023/05/08 00:49:09;;;;;;;7.10;6.10;;;14.20;99.90;;;;;;5012193;28;20041;-90
2023/05/08 00:51:36;;;;;;;7.47;6.78;;;14.20;99.90;;;;;;5026878;28;20496;-89
2023/05/08 00:54:02;;;;;;;6.20;5.60;;;14.20;99.90;;;;;;5027086;28;20048;-89
2023/05/08 00:56:29;;;;;;;6.40;5.40;;;14.20;99.90;;;;;;5046897;28;20028;-89
2023/05/08 00:58:55;;;;;;;6.15;5.40;;;14.20;99.90;;;;;;5047730;28;20028;-90
2023/05/08 01:01:22;;;;;;;7.97;6.05;;;14.10;99.90;;;;;;5030491;28;20071;-90
2023/05/08 01:03:48;;;;;;;6.85;4.65;;;14.10;99.90;;;;;;5027293;28;20087;-89
2023/05/08 01:06:14;;;;;;;7.72;5.97;;;14.10;99.90;;;;;;5029722;28;20037;-90
2023/05/08 01:08:40;;;;;;;7.30;5.55;;;14.00;99.90;;;;;;5044318;28;20034;-90
2023/05/08 01:11:20;;;;;;;6.82;5.53;;;14.00;99.90;;;;;;5048873;28;20119;-89
2023/05/08 01:14:05;;;;;;;6.38;5.78;;;14.00;99.90;;;;;;5048456;28;20049;-89
2023/05/08 01:16:49;;;;;;;7.45;6.10;;;14.00;99.90;;;;;;5050675;28;20390;-89
2023/05/08 01:19:45;;;;;;;6.18;5.57;;;14.00;99.90;;;;;;5032655;28;20329;-90
2023/05/08 01:22:48;;;;;;;6.38;5.45;;;13.90;99.90;;;;;;5029190;28;20535;-90
2023/05/08 01:25:41;;;;;;;7.63;5.90;;;13.90;99.90;;;;;;5031373;28;20032;-90
2023/05/08 01:28:26;;;;;;;6.50;5.82;;;13.90;99.90;;;;;;5032135;28;20025;-89
2023/05/08 01:31:11;;;;;;;7.15;6.45;;;13.80;99.90;;;;;;5051283;28;20064;-90
2023/05/08 01:34:10;;;;;;;7.75;6.60;;;13.80;99.90;;;;;;5030709;28;20492;-90
2023/05/08 01:37:03;;;;;;;6.90;6.20;;;13.80;99.90;;;;;;5036821;28;20055;-90
2023/05/08 01:39:50;;;;;;;5.95;5.35;;;13.70;99.90;;;;;;5029224;28;20036;-90
2023/05/08 01:42:45;;;;;;;7.13;6.43;;;13.70;99.90;;;;;;5032966;28;20352;-90
2023/05/08 01:45:33;;;;;;;7.43;6.60;;;13.70;99.90;;;;;;5027140;28;20028;-90
2023/05/08 01:48:05;;;;;;;7.75;6.72;;;13.70;99.90;;;;;;5031223;28;20029;-90
2023/05/08 01:50:48;;;;;;;8.27;7.00;;;13.70;99.90;;;;;;5031447;28;20091;-90
2023/05/08 01:53:36;;;;;;;7.82;7.10;;;13.70;99.90;;;;;;5030030;28;20072;-90
2023/05/08 01:56:08;;;;;;;7.47;6.72;;;13.60;99.90;;;;;;5030927;28;20091;-90
2023/05/08 01:58:35;;;;;;;8.85;7.55;;;13.60;99.90;;;;;;5031553;28;20031;-90
2023/05/08 02:01:02;;;;;;;10.93;7.38;;;13.60;99.90;;;;;;5013303;28;20032;-91
2023/05/08 02:03:30;;;;;;;9.25;8.35;;;13.60;99.90;;;;;;5032219;28;20037;-90
2023/05/08 02:05:59;;;;;;;9.27;8.38;;;13.60;99.90;;;;;;5027827;28;20035;-90
2023/05/08 02:08:27;;;;;;;9.55;8.65;;;13.60;99.90;;;;;;5013267;28;20033;-90
2023/05/08 02:10:54;;;;;;;9.07;8.18;;;13.60;99.90;;;;;;5031842;28;20307;-90
2023/05/08 02:13:22;;;;;;;8.65;7.75;;;13.50;99.90;;;;;;5031810;28;20033;-90
2023/05/08 02:15:49;;;;;;;8.00;7.20;;;13.50;99.90;;;;;;5012386;28;20052;-91
2023/05/08 02:18:19;;;;;;;8.63;7.65;;;13.40;99.90;;;;;;5048435;28;20060;-90
2023/05/08 02:20:47;;;;;;;9.10;8.20;;;13.40;99.90;;;;;;5012000;28;20203;-91
2023/05/08 02:23:14;;;;;;;9.90;8.70;;;13.40;99.90;;;;;;5012621;28;20033;-90
2023/05/08 02:25:41;;;;;;;10.20;9.20;;;13.30;99.90;;;;;;5034064;28;20331;-92
2023/05/08 02:28:07;;;;;;;9.93;8.93;;;13.20;99.90;;;;;;5049131;28;20486;-90
2023/05/08 02:30:34;;;;;;;10.27;8.50;;;13.20;99.90;;;;;;5051424;28;20035;-90
2023/05/08 02:33:01;;;;;;;9.95;8.25;;;13.20;99.90;;;;;;5031927;28;20036;-92
2023/05/08 02:35:29;;;;;;;11.25;9.18;;;13.20;99.90;;;;;;5033786;28;20083;-91
2023/05/08 02:37:56;;;;;;;9.80;8.65;;;13.20;99.90;;;;;;5014906;28;20033;-91
2023/05/08 02:40:26;;;;;;;10.20;9.18;;;13.20;99.90;;;;;;5014265;28;20026;-91
2023/05/08 02:42:53;;;;;;;9.50;8.52;;;13.10;99.90;;;;;;5048356;28;20041;-91
2023/05/08 02:45:20;;;;;;;9.05;8.15;;;13.00;99.90;;;;;;5029938;28;20021;-90
2023/05/08 02:48:08;;;;;;;10.18;9.23;;;13.00;99.90;;;;;;5031563;28;20031;-90
2023/05/08 02:51:15;;;;;;;10.00;8.93;;;13.00;99.90;;;;;;5047485;28;20029;-91
2023/05/08 02:53:49;;;;;;;9.65;8.15;;;12.90;99.90;;;;;;5009151;28;20037;-90
2023/05/08 02:56:36;;;;;;;11.13;9.95;;;12.80;99.90;;;;;;5049418;28;20024;-91
2023/05/08 02:59:27;;;;;;;9.55;8.63;;;12.70;99.90;;;;;;5028394;28;20061;-91
2023/05/08 03:02:03;;;;;;;10.02;8.57;;;12.80;99.90;;;;;;5031463;28;20048;-88
2023/05/08 03:04:35;;;;;;;8.75;7.82;;;12.70;99.90;;;;;;5028582;28;20043;-91
2023/05/08 03:07:03;;;;;;;10.63;9.55;;;12.70;99.90;;;;;;5048502;28;20021;-89
2023/05/08 03:09:41;;;;;;;9.70;8.70;;;12.70;99.90;;;;;;5028532;28;20029;-91
2023/05/08 03:12:13;;;;;;;9.43;8.43;;;12.70;99.90;;;;;;5029839;28;20366;-90
2023/05/08 03:14:51;;;;;;;9.48;8.50;;;12.70;99.90;;;;;;5030613;28;20049;-90
2023/05/08 03:17:19;;;;;;;9.35;8.45;;;12.70;99.90;;;;;;5048124;28;20033;-90
2023/05/08 03:19:51;;;;;;;9.35;8.40;;;12.70;99.90;;;;;;5026939;28;20070;-90
2023/05/08 03:22:19;;;;;;;9.20;8.30;;;12.80;99.90;;;;;;5028124;28;20040;-89
2023/05/08 03:24:46;;;;;;;9.40;8.40;;;12.70;99.90;;;;;;5063370;28;20025;-89
2023/05/08 03:27:13;;;;;;;9.23;8.32;;;12.80;99.90;;;;;;5047994;28;20130;-89
2023/05/08 03:29:40;;;;;;;8.95;8.10;;;12.90;99.90;;;;;;5030555;28;20024;-89
2023/05/08 03:32:07;;;;;;;8.95;8.05;;;12.90;99.90;;;;;;5028780;28;20527;-88
2023/05/08 03:34:34;;;;;;;10.07;9.10;;;12.80;99.90;;;;;;5012273;28;20032;-89
2023/05/08 03:37:00;;;;;;;10.48;9.38;;;12.80;99.90;;;;;;5030871;28;20497;-86
2023/05/08 03:39:27;;;;;;;9.60;8.60;;;12.80;99.90;;;;;;5046771;28;20028;-89
2023/05/08 03:41:54;;;;;;;9.38;8.45;;;12.80;99.90;;;;;;5046542;28;20099;-89
2023/05/08 03:44:21;;;;;;;9.50;8.60;;;12.80;99.90;;;;;;5027673;28;20036;-89
2023/05/08 03:46:49;;;;;;;9.57;8.68;;;12.80;99.90;;;;;;5010381;28;20056;-89
2023/05/08 03:49:17;;;;;;;10.13;9.13;;;12.80;99.90;;;;;;5026506;28;20471;-91
2023/05/08 03:51:44;;;;;;;8.88;7.97;;;12.80;99.90;;;;;;5045641;28;20477;-89
2023/05/08 03:54:10;;;;;;;8.32;7.53;;;12.70;99.90;;;;;;5025778;28;20370;-89
2023/05/08 03:56:36;;;;;;;9.63;8.70;;;12.70;99.90;;;;;;5025093;28;20037;-91
2023/05/08 03:59:12;;;;;;;9.85;8.95;;;12.80;99.90;;;;;;5030286;28;20504;-89
2023/05/08 04:01:47;;;;;;;10.18;9.18;;;12.80;99.90;;;;;;5027287;28;20040;-90
2023/05/08 04:04:24;;;;;;;8.93;8.10;;;12.80;99.90;;;;;;5026717;28;20091;-90
2023/05/08 04:07:02;;;;;;;10.82;9.07;;;12.70;99.90;;;;;;5046978;28;20040;-89
2023/05/08 04:10:07;;;;;;;10.38;8.82;;;12.80;99.90;;;;;;5045357;28;20017;-90
2023/05/08 04:13:13;;;;;;;10.20;9.20;;;12.80;99.90;;;;;;5027171;28;20040;-89
2023/05/08 04:15:59;;;;;;;9.23;8.32;;;12.80;99.90;;;;;;5045002;28;20049;-90
2023/05/08 04:18:28;;;;;;;9.07;8.20;;;12.80;99.90;;;;;;5027262;28;20029;-92
2023/05/08 04:20:57;;;;;;;10.63;9.20;;;12.80;99.90;;;;;;5011484;28;20450;-90
2023/05/08 04:23:24;;;;;;;8.90;8.00;;;12.80;99.90;;;;;;5030158;28;20028;-90
2023/05/08 04:25:52;;;;;;;10.48;8.95;;;12.90;99.90;;;;;;5046020;28;20025;-91
2023/05/08 04:28:19;;;;;;;10.20;9.20;;;12.90;99.90;;;;;;5010969;28;20228;-89
2023/05/08 04:30:45;;;;;;;11.32;9.77;;;12.80;99.90;;;;;;5031282;28;20158;-90
2023/05/08 04:33:12;;;;;;;10.55;9.45;;;12.90;99.90;;;;;;5011222;28;20029;-91
2023/05/08 04:35:39;;;;;;;10.68;9.63;;;12.90;99.90;;;;;;5025375;28;20029;-89
2023/05/08 04:38:04;;;;;;;9.98;8.68;;;12.90;99.90;;;;;;5031531;28;20039;-89
2023/05/08 04:40:31;;;;;;;9.85;8.82;;;12.90;99.90;;;;;;5026666;28;20017;-89
2023/05/08 04:42:57;;;;;;;10.27;9.25;;;12.90;99.90;;;;;;5046906;28;20029;-89
2023/05/08 04:45:23;;;;;;;9.80;8.80;;;12.90;99.90;;;;;;5028107;28;20022;-89
2023/05/08 04:47:49;;;;;;;9.45;8.55;;;13.00;99.90;;;;;;5051042;28;20025;-89
2023/05/08 04:50:15;;;;;;;9.43;8.48;;;13.00;99.90;;;;;;5031359;28;20021;-88
2023/05/08 04:52:41;;;;;;;9.57;8.52;;;13.00;99.90;;;;;;5014651;28;20021;-89
2023/05/08 04:55:08;;;;;;;10.32;9.18;;;13.00;99.90;;;;;;5032860;28;20090;-88
2023/05/08 04:57:37;;;;;;;9.27;8.37;;;13.00;99.90;;;;;;5016865;28;20358;-89
2023/05/08 05:00:04;;;;;;;9.32;8.38;;;13.00;99.90;;;;;;5052369;28;20033;-89
2023/05/08 05:02:32;;;;;;;9.93;8.93;;;13.00;99.90;;;;;;5015479;28;20036;-89
2023/05/08 05:05:00;;;;;;;11.02;9.82;;;13.10;99.90;;;;;;5032942;28;20550;-90
2023/05/08 05:07:29;;;;;;;10.52;9.43;;;13.10;99.90;;;;;;5030572;28;20405;-90
2023/05/08 05:09:54;;;;;;;11.50;10.40;;;13.20;99.90;;;;;;5051653;28;20100;-91
2023/05/08 05:12:20;;;;;;;10.75;9.75;;;13.20;99.90;;;;;;5052121;28;20155;-89
2023/05/08 05:14:46;;;;;;;11.45;10.27;;;13.20;99.90;;;;;;5032667;28;20044;-90
2023/05/08 05:17:11;;;;;;;10.85;9.75;;;13.20;99.90;;;;;;5030217;28;20535;-90
2023/05/08 05:19:37;;;;;;;11.70;9.50;;;13.20;99.90;;;;;;5031057;28;20028;-90
2023/05/08 05:22:05;;;;;;;9.73;8.88;;;13.20;99.90;;;;;;5051868;28;20142;-90
2023/05/08 05:24:31;;;;;;;10.15;9.27;;;13.20;99.90;;;;;;5039493;28;20032;-89
2023/05/08 05:26:57;;;;;;;10.68;9.60;;;13.30;99.90;;;;;;5037689;28;20064;-89
2023/05/08 05:29:23;;;;;;;11.45;10.18;;;13.40;99.90;;;;;;5027551;28;20381;-89
2023/05/08 05:31:49;;;;;;;11.65;10.55;;;13.40;99.90;;;;;;5031854;28;20115;-89
2023/05/08 05:34:14;;;;;;;12.02;10.82;;;13.40;99.90;;;;;;5032013;28;20179;-89
2023/05/08 05:36:40;;;;;;;10.20;9.20;;;13.40;99.90;;;;;;5032451;28;20040;-88
2023/05/08 05:39:06;;;;;;;9.65;8.80;;;13.50;99.90;;;;;;5050534;28;20054;-89
2023/05/08 05:41:33;;;;;;;10.40;9.40;;;13.50;99.90;;;;;;5050664;28;20035;-89
2023/05/08 05:43:59;;;;;;;10.70;9.70;;;13.60;99.90;;;;;;5050162;28;20028;-89
2023/05/08 05:46:31;;;;;;;10.40;9.40;;;13.70;99.90;;;;;;5050945;28;20385;-89
2023/05/08 05:48:57;;;;;;;10.68;9.68;;;13.70;99.90;;;;;;5030105;28;20022;-90
2023/05/08 05:51:23;;;;;;;10.60;9.52;;;13.80;99.90;;;;;;5031002;28;20023;-89
2023/05/08 05:53:49;;;;;;;11.15;10.15;;;13.90;99.90;;;;;;5032632;28;20041;-90
2023/05/08 05:56:15;;;;;;;9.60;8.73;;;13.90;99.90;;;;;;5029276;28;20024;-89
2023/05/08 05:58:43;;;;;;;10.18;9.13;;;13.90;99.90;;;;;;5049723;28;20027;-89
2023/05/08 06:01:10;;;;;;;10.15;9.18;;;14.00;99.90;;;;;;5029893;28;20119;-90
2023/05/08 06:03:36;;;;;;;9.57;8.68;;;14.10;99.90;;;;;;5050300;28;20052;-89
2023/05/08 06:06:03;;;;;;;10.55;9.65;;;14.10;99.90;;;;;;5034117;28;20428;-89
2023/05/08 06:08:29;;;;;;;10.60;9.63;;;14.10;99.90;;;;;;5050368;28;20051;-89
2023/05/08 06:10:55;;;;;;;11.05;10.05;;;14.20;99.90;;;;;;5032882;28;20020;-89
2023/05/08 06:13:21;;;;;;;11.57;10.43;;;14.30;99.90;;;;;;5049629;28;20462;-89
2023/05/08 06:15:49;;;;;;;10.77;9.68;;;14.40;99.90;;;;;;5030891;28;20049;-88
2023/05/08 06:18:15;;;;;;;11.82;10.63;;;14.40;99.90;;;;;;5029406;28;20043;-88
2023/05/08 06:20:41;;;;;;;11.40;10.27;;;14.50;99.90;;;;;;5032891;28;20036;-88
2023/05/08 06:23:07;;;;;;;11.00;9.93;;;14.30;99.90;;;;;;5030548;28;20057;-86
2023/05/08 06:25:33;;;;;;;10.85;9.82;;;14.40;99.90;;;;;;5049517;28;20059;-88
2023/05/08 06:27:59;;;;;;;10.02;9.13;;;14.50;99.90;;;;;;5031490;28;20124;-88
2023/05/08 06:30:24;;;;;;;10.00;9.00;;;14.50;99.90;;;;;;5033076;28;20029;-88
2023/05/08 06:32:50;;;;;;;9.55;8.65;;;14.70;99.90;;;;;;5049840;28;20029;-88
2023/05/08 06:35:18;;;;;;;10.95;9.80;;;14.70;99.90;;;;;;5049736;28;20068;-88
2023/05/08 06:37:45;;;;;;;10.93;9.93;;;14.70;99.90;;;;;;5032243;28;20018;-87
2023/05/08 06:40:12;;;;;;;12.23;10.95;;;14.80;99.90;;;;;;5049494;28;20029;-88
2023/05/08 06:42:39;;;;;;;11.07;9.98;;;14.80;99.90;;;;;;5028537;28;20048;-88
2023/05/08 06:45:06;;;;;;;11.02;9.95;;;14.90;99.90;;;;;;5029392;28;20022;-87
2023/05/08 06:47:32;;;;;;;12.55;11.35;;;14.80;99.90;;;;;;5026409;28;20029;-88
2023/05/08 06:49:58;;;;;;;12.25;11.10;;;14.80;99.90;;;;;;5030575;28;20093;-88
2023/05/08 06:52:24;;;;;;;11.40;10.20;;;14.80;99.90;;;;;;5049088;28;20382;-89
2023/05/08 06:54:50;;;;;;;13.35;11.02;;;14.90;99.90;;;;;;5030974;28;20320;-88
2023/05/08 06:57:16;;;;;;;13.43;10.45;;;15.00;99.90;;;;;;5029402;28;20106;-88
2023/05/08 06:59:41;;;;;;;13.88;10.25;;;15.00;99.90;;;;;;5046854;28;20158;-88
2023/05/08 07:02:08;;;;;;;16.20;11.73;;;15.00;99.90;;;;;;5022797;28;20036;-88
2023/05/08 07:04:35;;;;;;;17.05;11.35;;;15.20;99.90;;;;;;5029643;28;20029;-87
2023/05/08 07:07:01;;;;;;;21.90;14.40;;;15.20;99.90;;;;;;5006461;28;20036;-88
2023/05/08 07:09:26;;;;;;;21.98;13.93;;;15.10;99.90;;;;;;5007125;28;20025;-88
2023/05/08 07:11:52;;;;;;;21.60;13.32;;;15.20;99.90;;;;;;5030226;28;20036;-88
2023/05/08 07:14:18;;;;;;;25.17;14.20;;;15.30;99.90;;;;;;5026283;28;20410;-88
2023/05/08 07:16:43;;;;;;;21.75;13.05;;;15.40;99.90;;;;;;5027274;28;20527;-88
2023/05/08 07:19:09;;;;;;;17.83;12.02;;;15.30;99.90;;;;;;5046566;28;20075;-88
2023/05/08 07:21:35;;;;;;;15.95;12.10;;;15.40;99.90;;;;;;5006010;28;20098;-88
2023/05/08 07:24:01;;;;;;;17.30;12.65;;;15.40;99.90;;;;;;5047289;28;20036;-87
2023/05/08 07:26:26;;;;;;;16.25;11.02;;;15.50;99.90;;;;;;5008862;28;20121;-88
2023/05/08 07:28:53;;;;;;;15.82;11.52;;;15.50;99.90;;;;;;5028943;28;20473;-88
2023/05/08 07:31:19;;;;;;;18.15;12.57;;;15.60;99.90;;;;;;5028488;28;20037;-88
2023/05/08 07:33:45;;;;;;;18.98;13.18;;;15.60;99.90;;;;;;5009495;28;20493;-87
2023/05/08 07:36:11;;;;;;;19.33;12.48;;;15.60;99.90;;;;;;5029765;28;20087;-88
2023/05/08 07:38:37;;;;;;;22.33;12.80;;;15.50;99.90;;;;;;5028486;28;20032;-88
2023/05/08 07:41:04;;;;;;;23.45;14.25;;;15.50;99.90;;;;;;5005722;28;20033;-88
2023/05/08 07:43:30;;;;;;;24.40;14.20;;;15.50;99.90;;;;;;5005335;28;20482;-87
2023/05/08 07:45:56;;;;;;;24.55;14.98;;;15.50;99.90;;;;;;5007511;28;20029;-88
2023/05/08 07:48:22;;;;;;;26.90;15.45;;;15.50;99.90;;;;;;5045626;28;20032;-87
2023/05/08 07:50:50;;;;;;;23.13;14.52;;;15.50;99.90;;;;;;5026926;28;20021;-86
2023/05/08 07:53:16;;;;;;;24.80;13.48;;;15.70;99.90;;;;;;5022707;28;20139;-87
2023/05/08 07:55:42;;;;;;;24.23;14.00;;;15.80;99.90;;;;;;5005206;28;20052;-87
2023/05/08 07:58:08;;;;;;;26.13;14.65;;;15.90;99.90;;;;;;5045214;28;20079;-87
2023/05/08 08:00:34;;;;;;;25.00;14.82;;;16.00;99.90;;;;;;5005623;28;20024;-87
2023/05/08 08:02:59;;;;;;;21.40;13.95;;;16.00;99.90;;;;;;5045270;28;20068;-87
2023/05/08 08:05:25;;;;;;;24.83;14.02;;;16.10;99.90;;;;;;5007145;28;20725;-87
2023/05/08 08:07:51;;;;;;;24.98;14.63;;;16.30;99.90;;;;;;5026100;28;20025;-87
2023/05/08 08:10:17;;;;;;;23.90;14.57;;;16.40;99.90;;;;;;5026360;28;20385;-87
2023/05/08 08:12:42;;;;;;;23.25;14.80;;;16.50;99.90;;;;;;5004999;28;20029;-87
2023/05/08 08:15:08;;;;;;;20.10;12.30;;;16.50;99.90;;;;;;5027797;28;20053;-87
2023/05/08 08:17:34;;;;;;;24.38;14.45;;;16.70;99.90;;;;;;5021510;28;20029;-88
2023/05/08 08:20:00;;;;;;;23.35;13.57;;;16.60;99.90;;;;;;5024680;28;20443;-88
2023/05/08 08:22:29;;;;;;;25.17;14.73;;;16.70;99.90;;;;;;5028866;28;20052;-87
2023/05/08 08:24:55;;;;;;;24.30;15.13;;;16.70;99.90;;;;;;5017265;28;20412;-88
2023/05/08 08:27:21;;;;;;;19.10;13.63;;;16.50;99.90;;;;;;5011028;28;20077;-89
2023/05/08 08:29:46;;;;;;;25.42;14.63;;;16.50;99.90;;;;;;5024661;28;20029;-87
2023/05/08 08:32:12;;;;;;;21.42;13.50;;;16.60;99.90;;;;;;5026460;28;20044;-88
2023/05/08 08:34:38;;;;;;;24.75;14.90;;;16.60;99.90;;;;;;5012002;28;20025;-88
2023/05/08 08:37:07;;;;;;;22.08;13.95;;;16.50;99.90;;;;;;5005765;28;20033;-89
2023/05/08 08:39:33;;;;;;;20.15;13.88;;;16.60;99.90;;;;;;5006583;28;20032;-89
2023/05/08 08:41:59;;;;;;;20.92;13.35;;;16.80;99.90;;;;;;5010718;28;20045;-88
2023/05/08 08:44:25;;;;;;;21.63;13.63;;;16.90;99.90;;;;;;5005954;28;20033;-88
2023/05/08 08:46:51;;;;;;;21.17;14.60;;;17.10;99.90;;;;;;5046001;28;20052;-88
2023/05/08 08:49:28;;;;;;;22.90;15.32;;;17.10;99.90;;;;;;5026005;28;20021;-88
2023/05/08 08:51:59;;;;;;;22.73;17.08;;;17.00;99.90;;;;;;5045223;28;20036;-87
2023/05/08 08:54:28;;;;;;;23.17;16.15;;;17.10;99.90;;;;;;5044794;28;20466;-87
2023/05/08 08:56:55;;;;;;;20.63;14.68;;;17.10;99.90;;;;;;5045203;28;20363;-88
2023/05/08 08:59:26;;;;;;;22.42;14.95;;;17.40;99.90;;;;;;5027783;28;20100;-90
2023/05/08 09:02:00;;;;;;;20.58;15.05;;;17.70;99.90;;;;;;5026865;28;20086;-89
2023/05/08 09:04:26;;;;;;;19.48;15.27;;;17.80;99.90;;;;;;5007359;28;20021;-86
2023/05/08 09:06:52;;;;;;;22.00;16.83;;;17.80;99.90;;;;;;5050620;28;20477;-87
2023/05/08 09:09:18;;;;;;;21.95;15.93;;;17.80;99.90;;;;;;5025993;28;20120;-87
2023/05/08 09:11:45;;;;;;;24.88;17.92;;;17.90;99.90;;;;;;5027337;28;20112;-87
2023/05/08 09:14:11;;;;;;;23.13;16.58;;;17.90;99.90;;;;;;5044004;28;20049;-87
2023/05/08 09:16:37;;;;;;;20.13;15.80;;;18.40;99.90;;;;;;5027340;28;20029;-88
2023/05/08 09:19:03;;;;;;;27.42;18.83;;;18.50;99.90;;;;;;5027968;28;20073;-87
2023/05/08 09:21:28;;;;;;;23.30;16.63;;;18.30;99.90;;;;;;5024221;28;20443;-86
2023/05/08 09:23:58;;;;;;;27.38;21.23;;;18.40;99.90;;;;;;5027666;28;20436;-86
2023/05/08 09:26:34;;;;;;;;;;;18.30;99.90;;;;;;5007333;28;20033;-86
2023/05/08 09:29:08;;;;;;;19.08;14.52;;;18.60;99.90;;;;;;5027285;28;19916;-86
2023/05/08 09:31:39;;;;;;;20.60;16.90;;;18.70;99.90;;;;;;5027526;28;20032;-86
2023/05/08 09:34:09;;;;;;;17.75;15.07;;;18.90;99.90;;;;;;5046620;28;20040;-87
2023/05/08 09:36:38;;;;;;;19.20;14.80;;;19.00;99.90;;;;;;5046741;28;20592;-86
2023/05/08 09:39:08;;;;;;;24.08;17.45;;;19.30;99.90;;;;;;5028008;28;20067;-86
2023/05/08 09:41:34;;;;;;;;;;;19.20;99.90;;;;;;5010330;28;20037;-84
2023/05/08 09:44:02;;;;;;;19.23;14.57;;;19.20;99.90;;;;;;5028499;28;20276;-86
2023/05/08 09:46:28;;;;;;;20.55;16.23;;;19.30;99.90;;;;;;5047430;28;20044;-86
2023/05/08 09:48:59;;;;;;;22.08;16.65;;;19.40;99.90;;;;;;5013335;28;20038;-86
2023/05/08 09:51:26;;;;;;;21.58;17.63;;;19.20;99.90;;;;;;5030005;28;20044;-86
2023/05/08 09:53:54;;;;;;;19.90;16.15;;;19.40;99.90;;;;;;5022973;28;20029;-86
2023/05/08 09:56:32;;;;;;;22.65;18.05;;;19.60;99.90;;;;;;5010494;28;20090;-86
2023/05/08 09:58:58;;;;;;;22.33;17.80;;;19.40;99.90;;;;;;5010950;28;20043;-86
2023/05/08 10:01:36;;;;;;;21.58;17.08;;;19.70;99.90;;;;;;5030689;28;20029;-86
2023/05/08 10:04:02;;;;;;;24.30;17.67;;;19.80;99.90;;;;;;5010421;28;20474;-85
2023/05/08 10:06:29;;;;;;;22.65;17.23;;;19.80;99.90;;;;;;5047446;28;20048;-85
2023/05/08 10:09:14;;;;;;;26.20;18.92;;;19.90;99.90;;;;;;5029673;28;20025;-85
2023/05/08 10:11:50;;;;;;;27.02;20.40;;;19.90;99.90;;;;;;5013906;28;20648;-85
2023/05/08 10:14:17;;;;;;;26.27;21.40;;;20.30;99.90;;;;;;5046490;28;20049;-85
2023/05/08 10:16:47;;;;;;;30.95;23.92;;;20.30;99.90;;;;;;5029752;28;20082;-85
2023/05/08 10:19:17;;;;;;;27.58;22.33;;;20.00;99.90;;;;;;5030015;28;20028;-85
2023/05/08 10:21:49;;;;;;;25.40;20.95;;;20.20;99.90;;;;;;5026443;28;20045;-85
2023/05/08 10:24:17;;;;;;;22.48;20.00;;;20.40;99.90;;;;;;5006781;28;20025;-85
2023/05/08 10:26:52;;;;;;;24.48;20.70;;;20.60;99.90;;;;;;5047557;28;20040;-86
2023/05/08 10:29:30;;;;;;;26.67;22.63;;;20.80;99.90;;;;;;5014758;28;20085;-85
2023/05/08 10:31:58;;;;;;;21.02;18.77;;;20.70;99.90;;;;;;5015174;28;20123;-85
2023/05/08 10:34:26;;;;;;;25.98;20.08;;;20.60;99.90;;;;;;5027704;28;20437;-86
2023/05/08 10:36:52;;;;;;;24.77;20.73;;;20.60;99.90;;;;;;5027943;28;20519;-85
2023/05/08 10:39:18;;;;;;;27.42;23.27;;;20.40;99.90;;;;;;5030444;28;20052;-86
2023/05/08 10:41:44;;;;;;;25.67;22.15;;;20.30;99.90;;;;;;5029567;28;20049;-85
2023/05/08 10:44:11;;;;;;;24.00;19.63;;;20.70;99.90;;;;;;5026361;28;20496;-85
2023/05/08 10:47:12;;;;;;;30.33;24.25;;;21.20;99.90;;;;;;5046645;28;20029;-86
2023/05/08 10:50:02;;;;;;;26.17;22.30;;;21.10;99.90;;;;;;4951661;28;20027;-85
2023/05/08 10:52:41;;;;;;;30.00;25.55;;;21.10;99.90;;;;;;4969792;28;20315;-85
2023/05/08 10:55:22;;;;;;;42.70;35.42;;;20.90;99.90;;;;;;4935453;28;20439;-86
2023/05/08 10:58:11;;;;;;;32.47;27.02;;;20.60;99.90;;;;;;4986360;28;20376;-85
2023/05/08 11:00:51;;;;;;;26.17;22.73;;;20.90;99.90;;;;;;4967007;28;20061;-86
2023/05/08 11:03:18;;;;;;;27.83;24.08;;;21.00;99.90;;;;;;4968331;28;20074;-86
2023/05/08 11:05:48;;;;;;;26.15;22.15;;;21.20;99.90;;;;;;4966030;28;20030;-85
2023/05/08 11:08:16;;;;;;;29.92;26.52;;;21.60;99.90;;;;;;4984068;28;20026;-85
2023/05/08 11:10:58;;;;;;;27.63;24.38;;;21.30;99.90;;;;;;4951542;28;20059;-85
2023/05/08 11:13:49;;;;;;;28.10;23.50;;;21.70;99.90;;;;;;4968429;28;20215;-85
2023/05/08 11:16:15;;;;;;;26.02;23.20;;;22.40;99.90;;;;;;4952174;28;20035;-85
2023/05/08 11:19:18;;;;;;;25.67;22.17;;;21.60;99.90;;;;;;4950820;28;20031;-86
2023/05/08 11:22:18;;;;;;;26.92;23.80;;;21.80;99.90;;;;;;4967790;28;20051;-84
2023/05/08 11:24:59;;;;;;;25.15;21.60;;;21.90;99.90;;;;;;5040449;28;20037;-85
2023/05/08 11:27:32;;;;;;;24.13;21.45;;;22.10;99.90;;;;;;5029010;28;20083;-84
2023/05/08 11:30:18;;;;;;;24.75;22.13;;;22.40;99.90;;;;;;5045015;28;20352;-85
2023/05/08 11:33:01;;;;;;;25.98;20.67;;;22.60;99.90;;;;;;5031941;28;20416;-86
2023/05/08 11:35:51;;;;;;;21.40;18.98;;;22.40;99.90;;;;;;5028805;28;20108;-86
2023/05/08 11:38:20;;;;;;;19.90;17.80;;;21.80;99.90;;;;;;5004648;28;20610;-86
2023/05/08 11:40:48;;;;;;;22.08;19.13;;;21.90;99.90;;;;;;5026689;28;20481;-85
2023/05/08 11:43:43;;;;;;;18.55;16.00;;;21.40;99.90;;;;;;5026411;28;20041;-85
2023/05/08 11:46:16;;;;;;;17.02;15.05;;;21.80;99.90;;;;;;5030328;28;20099;-85
2023/05/08 11:48:42;;;;;;;23.42;20.42;;;21.90;99.90;;;;;;5042796;28;20124;-87
2023/05/08 11:51:08;;;;;;;20.00;17.70;;;21.30;99.90;;;;;;5044071;28;20231;-86
2023/05/08 11:53:35;;;;;;;19.65;16.90;;;21.60;99.90;;;;;;5027935;28;20123;-86
2023/05/08 11:56:02;;;;;;;20.15;17.67;;;21.50;99.90;;;;;;5025751;28;20804;-86
2023/05/08 11:58:28;;;;;;;17.75;15.85;;;21.30;99.90;;;;;;5045081;28;20029;-86
2023/05/08 12:00:54;;;;;;;18.70;16.30;;;21.60;99.90;;;;;;5025594;28;20055;-86
2023/05/08 12:03:21;;;;;;;17.02;14.15;;;21.70;99.90;;;;;;5027139;28;20041;-86
2023/05/08 12:05:49;;;;;;;30.17;27.02;;;21.70;99.90;;;;;;5028400;28;20126;-88
2023/05/08 12:08:15;;;;;;;27.05;24.27;;;20.20;99.90;;;;;;5007154;28;20045;-86
2023/05/08 12:10:52;;;;;;;25.25;22.63;;;20.10;99.90;;;;;;5006369;28;20033;-89
2023/05/08 12:13:23;;;;;;;23.35;20.95;;;20.50;99.90;;;;;;5028795;28;20029;-88
2023/05/08 12:15:52;;;;;;;29.55;26.33;;;20.80;99.90;;;;;;5027065;28;20053;-86
2023/05/08 12:18:18;;;;;;;31.55;28.20;;;20.30;99.90;;;;;;5022224;28;20041;-86
2023/05/08 12:20:44;;;;;;;22.55;20.25;;;20.50;99.90;;;;;;5006947;28;20376;-87
2023/05/08 12:23:10;;;;;;;34.95;31.23;;;20.90;99.90;;;;;;5026442;28;20045;-86
2023/05/08 12:25:37;;;;;;;34.22;30.63;;;20.50;99.90;;;;;;5046407;28;20025;-88
2023/05/08 12:28:06;;;;;;;33.55;30.13;;;20.30;99.90;;;;;;5007436;28;20053;-83
2023/05/08 12:30:32;;;;;;;25.97;23.20;;;19.90;99.90;;;;;;5026367;28;20029;-86
2023/05/08 12:32:59;;;;;;;32.60;29.20;;;20.10;99.90;;;;;;5005906;28;20119;-86
2023/05/08 12:35:25;;;;;;;31.63;26.52;;;20.10;99.90;;;;;;5045556;28;20021;-87
2023/05/08 12:37:51;;;;;;;33.95;29.20;;;20.10;99.90;;;;;;5010514;28;20336;-85
2023/05/08 12:40:31;;;;;;;31.20;28.05;;;20.00;99.90;;;;;;5044950;28;20025;-87
2023/05/08 12:43:00;;;;;;;31.13;27.92;;;19.90;99.90;;;;;;5045398;28;20127;-85
2023/05/08 12:45:32;;;;;;;33.97;30.27;;;20.10;99.90;;;;;;5044366;28;20028;-83
2023/05/08 12:48:00;;;;;;;31.08;27.77;;;19.90;99.90;;;;;;5027166;28;20413;-86
2023/05/08 12:50:29;;;;;;;25.80;23.23;;;20.00;99.90;;;;;;5028829;28;20468;-86